createdAt,value
2019-05-13T00:00:29.312Z,99.90
2019-05-13T00:03:03.359Z,99.90
2019-05-13T00:05:35.418Z,99.90
2019-05-13T00:08:07.181Z,99.90
2019-05-13T00:10:38.904Z,99.90
2019-05-13T00:13:10.515Z,99.90
2019-05-13T00:15:44.371Z,99.90
2019-05-13T00:18:15.611Z,99.90
2019-05-13T00:20:48.267Z,99.90
2019-05-13T00:23:19.885Z,99.90
2019-05-13T00:25:51.618Z,99.90
2019-05-13T00:28:23.568Z,99.90
2019-05-13T00:30:55.375Z,99.90
2019-05-13T00:33:30.065Z,99.90
2019-05-13T00:36:03.893Z,99.90
2019-05-13T00:38:35.161Z,99.90
2019-05-13T00:41:06.815Z,99.90
2019-05-13T00:43:38.455Z,99.90
2019-05-13T00:46:10.125Z,99.90
2019-05-13T00:48:43.553Z,99.90
2019-05-13T00:51:15.076Z,99.90
2019-05-13T00:53:46.725Z,99.90
2019-05-13T00:56:18.407Z,99.90
2019-05-13T00:58:50.090Z,99.90
2019-05-13T01:01:24.197Z,99.90
2019-05-13T01:03:56.262Z,99.90
2019-05-13T01:06:27.946Z,99.90
2019-05-13T01:08:59.684Z,99.90
2019-05-13T01:11:34.394Z,99.90
2019-05-13T01:14:06.255Z,99.90
2019-05-13T01:16:39.039Z,99.90
2019-05-13T01:19:10.772Z,99.90
2019-05-13T01:21:43.443Z,99.90
2019-05-13T01:24:15.344Z,99.90
2019-05-13T01:26:47.032Z,99.90
2019-05-13T01:29:18.778Z,99.90
2019-05-13T01:31:50.438Z,99.90
2019-05-13T01:34:23.563Z,99.90
2019-05-13T01:36:55.360Z,99.90
2019-05-13T01:39:28.384Z,99.90
2019-05-13T01:42:00.038Z,99.90
2019-05-13T01:44:33.500Z,99.90
2019-05-13T01:47:05.034Z,99.90
2019-05-13T01:49:36.699Z,99.90
2019-05-13T01:52:08.349Z,99.90
2019-05-13T01:54:40.047Z,99.90
2019-05-13T01:57:14.132Z,99.90
2019-05-13T01:59:45.193Z,99.90
2019-05-13T02:02:16.950Z,99.90
2019-05-13T02:04:48.606Z,99.90
2019-05-13T02:07:20.301Z,99.90
2019-05-13T02:09:53.398Z,99.90
2019-05-13T02:12:25.275Z,99.90
2019-05-13T02:14:56.940Z,99.90
2019-05-13T02:17:28.644Z,99.90
2019-05-13T02:20:00.338Z,99.90
2019-05-13T02:22:33.639Z,99.90
2019-05-13T02:25:05.596Z,99.90
2019-05-13T02:27:37.268Z,99.90
2019-05-13T02:30:09.005Z,99.90
2019-05-13T02:32:42.840Z,99.90
2019-05-13T02:35:14.343Z,99.90
2019-05-13T02:37:46.082Z,99.90
2019-05-13T02:40:17.822Z,99.90
2019-05-13T02:42:52.170Z,99.90
2019-05-13T02:45:22.937Z,99.90
2019-05-13T02:47:54.600Z,99.90
2019-05-13T02:50:26.294Z,99.90
2019-05-13T02:52:58.076Z,99.90
2019-05-13T02:55:32.897Z,99.90
2019-05-13T02:58:03.994Z,99.90
2019-05-13T03:00:35.759Z,99.90
2019-05-13T03:03:07.544Z,99.90
2019-05-13T03:05:39.207Z,99.90
2019-05-13T03:08:12.691Z,99.90
2019-05-13T03:10:44.285Z,99.90
2019-05-13T03:13:15.983Z,99.90
2019-05-13T03:16:15.545Z,99.90
2019-05-13T03:18:47.365Z,99.90
2019-05-13T03:21:22.844Z,99.90
2019-05-13T03:23:52.746Z,99.90
2019-05-13T03:26:24.467Z,99.90
2019-05-13T03:28:56.116Z,99.90
2019-05-13T03:31:28.023Z,99.90
2019-05-13T03:34:05.696Z,99.90
2019-05-13T03:36:36.209Z,99.90
2019-05-13T03:39:14.505Z,99.90
2019-05-13T03:41:44.584Z,99.90
2019-05-13T03:44:17.785Z,99.90
2019-05-13T03:46:53.082Z,99.90
2019-05-13T03:49:32.519Z,99.90
2019-05-13T03:52:03.510Z,99.90
2019-05-13T03:54:35.705Z,99.90
2019-05-13T03:57:07.588Z,99.90
2019-05-13T03:59:43.352Z,99.90
2019-05-13T04:02:13.713Z,99.90
2019-05-13T04:04:45.412Z,99.90
2019-05-13T04:07:17.182Z,99.90
2019-05-13T04:09:52.333Z,99.90
2019-05-13T04:12:22.949Z,99.90
2019-05-13T04:14:55.159Z,99.90
2019-05-13T04:17:26.820Z,99.90
2019-05-13T04:19:58.552Z,99.90
2019-05-13T04:22:33.255Z,99.90
2019-05-13T04:25:03.978Z,99.90
2019-05-13T04:27:35.819Z,99.90
2019-05-13T04:30:12.965Z,99.90
2019-05-13T04:32:44.255Z,99.90
2019-05-13T04:35:16.158Z,99.90
2019-05-13T04:37:47.992Z,99.90
2019-05-13T04:40:22.935Z,99.90
2019-05-13T04:42:53.824Z,99.90
2019-05-13T04:45:28.746Z,99.90
2019-05-13T04:48:03.202Z,99.90
2019-05-13T04:50:33.809Z,99.90
2019-05-13T04:53:06.361Z,99.90
2019-05-13T04:55:38.357Z,99.90
2019-05-13T04:58:12.990Z,99.90
2019-05-13T05:02:04.846Z,99.90
2019-05-13T05:05:08.884Z,99.90
2019-05-13T05:08:15.280Z,99.90
2019-05-13T05:11:32.283Z,99.90
2019-05-13T05:14:42.829Z,99.90
2019-05-13T05:18:07.469Z,99.90
2019-05-13T05:21:04.302Z,99.90
2019-05-13T05:24:16.078Z,99.90
2019-05-13T05:28:02.206Z,99.90
2019-05-13T05:31:36.192Z,99.90
2019-05-13T05:35:26.561Z,99.90
2019-05-13T05:39:07.766Z,99.90
2019-05-13T05:41:42.091Z,99.90
2019-05-13T05:44:14.806Z,99.90
2019-05-13T05:46:47.428Z,99.90
2019-05-13T05:49:21.471Z,99.90
2019-05-13T05:52:01.767Z,99.90
2019-05-13T05:54:37.114Z,99.70
2019-05-13T05:57:12.173Z,99.50
2019-05-13T05:59:45.010Z,98.20
2019-05-13T06:02:18.956Z,94.90
2019-05-13T06:04:52.551Z,93.50
2019-05-13T06:07:24.934Z,92.20
2019-05-13T06:09:56.718Z,90.40
2019-05-13T06:12:31.470Z,86.10
2019-05-13T06:15:02.956Z,78.40
2019-05-13T06:17:34.777Z,75.70
2019-05-13T06:20:07.177Z,73.30
2019-05-13T06:22:39.282Z,67.70
2019-05-13T06:25:14.419Z,65.90
2019-05-13T06:27:45.145Z,62.10
2019-05-13T06:30:21.899Z,61.40
2019-05-13T06:32:54.071Z,63.10
2019-05-13T06:35:26.008Z,64.60
2019-05-13T06:38:03.400Z,60.20
2019-05-13T06:40:35.247Z,61.40
2019-05-13T06:43:07.574Z,62.20
2019-05-13T06:45:39.316Z,60.70
2019-05-13T06:48:11.863Z,56.50
2019-05-13T06:50:43.535Z,55.90
2019-05-13T06:53:15.194Z,56.50
2019-05-13T06:55:46.969Z,53.40
2019-05-13T06:58:18.857Z,52.50
2019-05-13T07:00:51.634Z,50.40
2019-05-13T07:03:23.473Z,49.30
2019-05-13T07:05:55.211Z,47.50
2019-05-13T07:08:26.881Z,44.40
2019-05-13T07:10:58.671Z,47.30
2019-05-13T07:13:32.287Z,47.20
2019-05-13T07:16:03.747Z,45.60
2019-05-13T07:18:35.432Z,41.90
2019-05-13T07:21:12.577Z,42.10
2019-05-13T07:23:45.833Z,54.40
2019-05-13T07:26:18.277Z,39.40
2019-05-13T07:28:52.390Z,40.10
2019-05-13T07:31:23.465Z,34.50
2019-05-13T07:33:55.209Z,31.90
2019-05-13T07:36:26.999Z,31.20
2019-05-13T07:39:01.240Z,29.80
2019-05-13T07:41:38.929Z,26.30
2019-05-13T07:44:05.655Z,22.90
2019-05-13T07:46:37.356Z,21.80
2019-05-13T07:49:11.827Z,16.40
2019-05-13T07:51:42.999Z,16.10
2019-05-13T07:54:14.795Z,16.10
2019-05-13T07:56:46.543Z,10.00
2019-05-13T07:59:18.269Z,5.90
2019-05-13T08:01:52.208Z,4.60
2019-05-13T08:04:26.571Z,3.10
2019-05-13T08:06:57.073Z,1.00
2019-05-13T08:09:28.819Z,1.00
2019-05-13T08:12:09.828Z,1.00
2019-05-13T08:14:36.876Z,1.00
2019-05-13T08:17:08.651Z,1.00
2019-05-13T08:19:42.369Z,1.00
2019-05-13T08:22:14.273Z,1.00
2019-05-13T08:24:46.069Z,1.00
2019-05-13T08:27:21.630Z,1.00
2019-05-13T08:29:52.207Z,1.00
2019-05-13T08:32:24.039Z,1.00
2019-05-13T08:35:02.031Z,1.00
2019-05-13T08:37:29.153Z,1.00
2019-05-13T08:40:01.674Z,1.00
2019-05-13T08:42:33.707Z,1.00
2019-05-13T08:45:05.510Z,1.00
2019-05-13T08:47:37.190Z,1.00
2019-05-13T08:50:11.744Z,1.00
2019-05-13T08:52:42.758Z,1.00
2019-05-13T08:55:16.248Z,1.00
2019-05-13T08:57:48.137Z,1.00
2019-05-13T09:00:48.678Z,1.00
2019-05-13T09:03:21.563Z,1.00
2019-05-13T09:05:54.569Z,1.00
2019-05-13T09:08:28.313Z,1.00
2019-05-13T09:11:01.596Z,1.00
2019-05-13T09:13:33.566Z,1.00
2019-05-13T09:16:05.592Z,1.00
2019-05-13T09:18:37.375Z,1.00
2019-05-13T09:21:11.523Z,1.00
2019-05-13T09:23:42.442Z,1.00
2019-05-13T09:26:14.254Z,1.00
2019-05-13T09:28:45.916Z,1.00
2019-05-13T09:31:17.669Z,1.00
2019-05-13T09:33:51.904Z,1.00
2019-05-13T09:36:22.902Z,1.00
2019-05-13T09:38:57.768Z,1.00
2019-05-13T09:41:31.869Z,1.00
2019-05-13T09:44:02.957Z,1.00
2019-05-13T09:46:34.787Z,1.00
2019-05-13T09:49:15.763Z,1.00
2019-05-13T09:51:41.648Z,1.00
2019-05-13T09:54:13.573Z,1.00
2019-05-13T09:56:45.299Z,1.00
2019-05-13T09:59:17.078Z,1.00
2019-05-13T10:01:51.683Z,1.00
2019-05-13T10:04:22.417Z,1.00
2019-05-13T10:06:54.038Z,1.00
2019-05-13T10:09:28.624Z,1.00
2019-05-13T10:12:03.106Z,1.00
2019-05-13T10:14:33.811Z,1.00
2019-05-13T10:17:06.618Z,1.00
2019-05-13T10:19:38.477Z,1.00
2019-05-13T10:22:14.957Z,1.00
2019-05-13T10:24:47.135Z,1.00
2019-05-13T10:27:19.285Z,1.00
2019-05-13T10:29:52.248Z,1.00
2019-05-13T10:32:24.034Z,1.00
2019-05-13T10:34:55.864Z,1.00
2019-05-13T10:37:27.660Z,1.00
2019-05-13T10:39:59.361Z,1.00
2019-05-13T10:42:31.150Z,1.00
2019-05-13T10:45:02.869Z,1.00
2019-05-13T10:47:35.550Z,1.00
2019-05-13T10:50:07.540Z,1.00
2019-05-13T10:52:39.234Z,1.00
2019-05-13T10:55:12.883Z,1.00
2019-05-13T10:57:44.608Z,1.00
2019-05-13T11:00:16.503Z,1.00
2019-05-13T11:02:54.424Z,1.00
2019-05-13T11:05:26.078Z,1.00
2019-05-13T11:08:02.169Z,1.00
2019-05-13T11:10:33.978Z,1.00
2019-05-13T11:13:11.883Z,1.00
2019-05-13T11:15:47.633Z,1.00
2019-05-13T11:18:21.909Z,1.00
2019-05-13T11:20:52.959Z,1.00
2019-05-13T11:23:24.795Z,1.00
2019-05-13T11:25:56.419Z,1.00
2019-05-13T11:28:28.154Z,1.00
2019-05-13T11:31:02.923Z,1.00
2019-05-13T11:33:33.562Z,1.00
2019-05-13T11:36:05.688Z,1.00
2019-05-13T11:38:37.437Z,1.00
2019-05-13T11:41:09.199Z,1.00
2019-05-13T11:43:42.585Z,1.00
2019-05-13T11:46:14.303Z,1.00
2019-05-13T11:48:46.031Z,1.00
2019-05-13T11:51:17.674Z,1.00
2019-05-13T11:53:49.455Z,1.00
2019-05-13T11:56:22.975Z,1.00
2019-05-13T11:58:54.562Z,1.00
2019-05-13T12:01:26.327Z,1.00
2019-05-13T12:03:58.962Z,1.00
2019-05-13T12:06:33.880Z,1.00
2019-05-13T12:09:07.527Z,1.00
2019-05-13T12:11:39.260Z,1.00
2019-05-13T12:14:37.019Z,1.00
2019-05-13T12:16:44.379Z,1.00
2019-05-13T12:19:16.303Z,1.00
2019-05-13T12:21:48.214Z,1.00
2019-05-13T12:24:22.662Z,1.00
2019-05-13T12:26:55.800Z,1.00
2019-05-13T12:29:28.596Z,1.00
2019-05-13T12:32:03.049Z,1.00
2019-05-13T12:34:40.383Z,1.00
2019-05-13T12:37:07.607Z,1.00
2019-05-13T12:39:43.898Z,1.00
2019-05-13T12:42:17.962Z,1.00
2019-05-13T12:47:36.935Z,1.00
2019-05-13T12:50:13.569Z,1.00
2019-05-13T12:52:45.184Z,1.00
2019-05-13T12:55:17.336Z,1.00
2019-05-13T12:57:49.063Z,1.00
2019-05-13T13:00:23.629Z,1.00
2019-05-13T13:02:54.246Z,1.00
2019-05-13T13:05:33.279Z,1.00
2019-05-13T13:08:18.409Z,1.00
2019-05-13T13:10:35.571Z,1.00
2019-05-13T13:13:07.238Z,1.00
2019-05-13T13:15:43.462Z,1.00
2019-05-13T13:18:14.471Z,1.00
2019-05-13T13:20:56.180Z,1.00
2019-05-13T13:23:23.514Z,1.00
2019-05-13T13:28:27.004Z,1.00
2019-05-13T13:31:03.785Z,1.00
2019-05-13T13:33:34.404Z,1.00
2019-05-13T13:36:06.189Z,1.00
2019-05-13T13:38:38.304Z,1.00
2019-05-13T13:41:20.852Z,1.00
2019-05-13T13:43:47.192Z,1.00
2019-05-13T13:46:33.908Z,1.00
2019-05-13T13:48:55.192Z,1.00
2019-05-13T13:51:28.415Z,1.00
2019-05-13T13:54:00.126Z,1.00
2019-05-13T13:56:32.609Z,1.00
2019-05-13T13:59:04.669Z,1.00
2019-05-13T14:01:40.190Z,1.00
2019-05-13T14:04:16.275Z,1.00
2019-05-13T14:06:33.328Z,1.00
2019-05-13T14:07:09.443Z,1.00
2019-05-13T14:09:22.158Z,1.00
2019-05-13T14:11:52.517Z,1.00
2019-05-13T14:14:24.293Z,1.00
2019-05-13T14:16:56.210Z,1.00
2019-05-13T14:19:28.324Z,1.00
2019-05-13T14:22:01.703Z,1.00
2019-05-13T14:24:33.497Z,1.00
2019-05-13T14:27:05.255Z,1.00
2019-05-13T14:29:41.673Z,1.00
2019-05-13T14:32:10.599Z,1.00
2019-05-13T14:34:42.500Z,1.00
2019-05-13T14:37:14.430Z,1.00
2019-05-13T14:39:46.531Z,1.00
2019-05-13T14:42:18.251Z,1.00
2019-05-13T14:44:52.088Z,1.00
2019-05-13T14:47:23.275Z,1.00
2019-05-13T14:49:55.967Z,1.00
2019-05-13T14:52:27.683Z,1.00
2019-05-13T14:55:02.216Z,1.00
2019-05-13T14:57:34.076Z,1.00
2019-05-13T15:00:06.878Z,1.00
2019-05-13T15:02:39.063Z,1.00
2019-05-13T15:05:11.950Z,1.00
2019-05-13T15:07:43.847Z,1.00
2019-05-13T15:10:17.015Z,1.00
2019-05-13T15:12:48.694Z,1.00
2019-05-13T15:15:22.410Z,1.00
2019-05-13T15:17:55.313Z,1.00
2019-05-13T15:20:27.055Z,1.00
2019-05-13T15:22:58.848Z,1.00
2019-05-13T15:25:31.367Z,1.00
2019-05-13T15:28:03.464Z,1.00
2019-05-13T15:30:35.149Z,1.00
2019-05-13T15:33:06.770Z,1.00
2019-05-13T15:35:38.529Z,1.00
2019-05-13T15:38:12.514Z,1.00
2019-05-13T15:40:43.654Z,1.00
2019-05-13T15:43:15.508Z,1.00
2019-05-13T15:45:47.320Z,1.00
2019-05-13T15:48:19.237Z,1.00
2019-05-13T15:50:51.726Z,1.00
2019-05-13T15:53:23.537Z,1.00
2019-05-13T15:55:55.363Z,1.00
2019-05-13T15:58:39.287Z,1.00
2019-05-13T16:01:02.520Z,1.00
2019-05-13T16:03:34.151Z,1.00
2019-05-13T16:06:05.951Z,1.00
2019-05-13T16:08:37.948Z,1.00
2019-05-13T16:11:12.594Z,1.00
2019-05-13T16:13:44.861Z,1.00
2019-05-13T16:16:16.601Z,1.00
2019-05-13T16:18:48.326Z,1.00
2019-05-13T16:21:20.094Z,1.00
2019-05-13T16:23:52.152Z,1.00
2019-05-13T16:26:27.155Z,1.00
2019-05-13T16:28:57.559Z,1.00
2019-05-13T16:31:29.275Z,1.00
2019-05-13T16:34:01.614Z,1.00
2019-05-13T16:36:33.682Z,1.00
2019-05-13T16:39:07.043Z,1.00
2019-05-13T16:41:38.828Z,1.00
2019-05-13T16:44:11.863Z,1.00
2019-05-13T16:46:43.938Z,1.00
2019-05-13T16:49:16.214Z,1.00
2019-05-13T16:51:47.937Z,1.00
2019-05-13T16:54:21.797Z,1.00
2019-05-13T16:56:52.941Z,1.00
2019-05-13T16:59:24.715Z,1.00
2019-05-13T17:01:56.489Z,1.00
2019-05-13T17:04:28.148Z,1.00
2019-05-13T17:07:01.575Z,1.00
2019-05-13T17:09:33.124Z,1.00
2019-05-13T17:12:04.863Z,1.00
2019-05-13T17:14:36.794Z,1.00
2019-05-13T17:17:08.549Z,1.00
2019-05-13T17:19:42.165Z,1.00
2019-05-13T17:22:14.113Z,1.00
2019-05-13T17:24:45.818Z,1.00
2019-05-13T17:27:17.590Z,1.00
2019-05-13T17:29:51.457Z,1.00
2019-05-13T17:32:22.714Z,1.00
2019-05-13T17:34:54.450Z,1.00
2019-05-13T17:37:26.297Z,1.00
2019-05-13T17:39:58.090Z,1.00
2019-05-13T17:42:31.910Z,1.00
2019-05-13T17:45:03.359Z,1.00
2019-05-13T17:47:35.422Z,1.00
2019-05-13T17:50:11.615Z,1.00
2019-05-13T17:52:43.114Z,1.00
2019-05-13T17:55:17.668Z,1.00
2019-05-13T17:57:50.052Z,1.00
2019-05-13T18:00:22.154Z,1.00
2019-05-13T18:02:55.089Z,1.00
2019-05-13T18:05:31.470Z,1.00
2019-05-13T18:08:03.354Z,1.00
2019-05-13T18:10:35.125Z,1.00
2019-05-13T18:13:07.054Z,1.00
2019-05-13T18:15:38.806Z,1.00
2019-05-13T18:18:11.995Z,1.00
2019-05-13T18:20:43.963Z,1.00
2019-05-13T18:23:15.724Z,1.00
2019-05-13T18:25:47.530Z,1.00
2019-05-13T18:28:30.293Z,1.00
2019-05-13T18:30:52.664Z,1.00
2019-05-13T18:33:24.292Z,1.00
2019-05-13T18:35:55.924Z,1.00
2019-05-13T18:38:28.609Z,1.00
2019-05-13T18:41:01.821Z,1.00
2019-05-13T18:43:34.041Z,1.00
2019-05-13T18:46:05.902Z,1.00
2019-05-13T18:48:37.606Z,1.00
2019-05-13T18:51:11.718Z,1.00
2019-05-13T18:53:42.830Z,1.00
2019-05-13T18:56:14.631Z,1.00
2019-05-13T18:58:46.467Z,1.00
2019-05-13T19:01:18.578Z,1.00
2019-05-13T19:03:50.566Z,1.00
2019-05-13T19:06:22.560Z,1.00
2019-05-13T19:08:55.466Z,1.00
2019-05-13T19:11:27.281Z,1.00
2019-05-13T19:13:59.191Z,1.00
2019-05-13T19:16:31.916Z,1.00
2019-05-13T19:19:13.310Z,1.00
2019-05-13T19:21:38.781Z,1.00
2019-05-13T19:24:13.334Z,1.00
2019-05-13T19:26:44.998Z,1.00
2019-05-13T19:29:16.875Z,1.00
2019-05-13T19:31:50.890Z,1.00
2019-05-13T19:34:22.296Z,1.00
2019-05-13T19:36:54.029Z,1.00
2019-05-13T19:39:25.880Z,1.00
2019-05-13T19:41:57.716Z,1.00
2019-05-13T19:44:31.383Z,1.00
2019-05-13T19:47:02.995Z,1.00
2019-05-13T19:49:37.290Z,1.00
2019-05-13T19:52:08.977Z,1.00
2019-05-13T19:54:42.010Z,1.00
2019-05-13T19:57:13.953Z,1.00
2019-05-13T19:59:45.787Z,1.00
2019-05-13T20:02:17.482Z,1.00
2019-05-13T20:04:49.344Z,1.00
2019-05-13T20:07:22.941Z,1.00
2019-05-13T20:09:54.765Z,1.00
2019-05-13T20:12:26.706Z,1.00
2019-05-13T20:15:01.228Z,1.00
2019-05-13T20:17:35.092Z,1.00
2019-05-13T20:20:06.309Z,1.60
2019-05-13T20:22:41.950Z,2.20
2019-05-13T20:25:14.243Z,2.40
2019-05-13T20:27:46.095Z,4.20
2019-05-13T20:30:17.814Z,4.60
2019-05-13T20:32:51.357Z,6.10
2019-05-13T20:35:22.931Z,7.00
2019-05-13T20:37:54.614Z,7.70
2019-05-13T20:40:26.309Z,7.30
2019-05-13T20:42:58.033Z,8.10
2019-05-13T20:45:31.206Z,7.20
2019-05-13T20:48:02.976Z,9.90
2019-05-13T20:50:35.910Z,11.80
2019-05-13T20:53:07.579Z,11.50
2019-05-13T20:55:41.503Z,11.70
2019-05-13T20:58:13.011Z,13.10
2019-05-13T21:00:44.805Z,13.30
2019-05-13T21:03:16.541Z,16.20
2019-05-13T21:05:51.523Z,15.90
2019-05-13T21:08:23.034Z,15.40
2019-05-13T21:10:54.723Z,15.30
2019-05-13T21:13:26.488Z,16.40
2019-05-13T21:15:58.194Z,16.10
2019-05-13T21:18:31.624Z,16.10
2019-05-13T21:21:03.572Z,15.80
2019-05-13T21:23:35.507Z,19.50
2019-05-13T21:26:07.180Z,19.10
2019-05-13T21:28:39.025Z,19.00
2019-05-13T21:31:11.373Z,19.50
2019-05-13T21:33:43.258Z,19.80
2019-05-13T21:36:14.948Z,21.60
2019-05-13T21:38:46.689Z,23.10
2019-05-13T21:41:18.383Z,24.00
2019-05-13T21:43:52.064Z,25.30
2019-05-13T21:46:23.503Z,24.40
2019-05-13T21:48:55.158Z,25.00
2019-05-13T21:51:26.825Z,25.60
2019-05-13T21:53:58.573Z,27.50
2019-05-13T21:56:31.821Z,28.50
2019-05-13T21:59:03.684Z,29.10
2019-05-13T22:01:37.693Z,31.10
2019-05-13T22:04:12.140Z,31.20
2019-05-13T22:06:43.311Z,32.20
2019-05-13T22:09:14.937Z,34.40
2019-05-13T22:11:46.681Z,36.50
2019-05-13T22:14:18.399Z,39.40
2019-05-13T22:16:51.766Z,40.90
2019-05-13T22:19:23.599Z,41.60
2019-05-13T22:21:55.321Z,44.40
2019-05-13T22:24:26.947Z,47.30
2019-05-13T22:26:58.598Z,48.30
2019-05-13T22:29:32.038Z,50.90
2019-05-13T22:32:03.551Z,52.00
2019-05-13T22:34:35.203Z,54.40
2019-05-13T22:37:06.869Z,55.80
2019-05-13T22:39:38.455Z,57.20
2019-05-13T22:42:12.217Z,58.20
2019-05-13T22:44:43.522Z,61.00
2019-05-13T22:47:15.168Z,59.60
2019-05-13T22:49:46.787Z,64.30
2019-05-13T22:52:18.475Z,65.00
2019-05-13T22:54:51.847Z,65.80
2019-05-13T22:57:23.793Z,68.50
2019-05-13T22:59:55.495Z,69.30
2019-05-13T23:02:27.145Z,72.40
2019-05-13T23:04:58.782Z,72.10
2019-05-13T23:07:31.523Z,71.10
2019-05-13T23:10:03.225Z,75.10
2019-05-13T23:12:34.935Z,74.60
2019-05-13T23:15:07.320Z,75.90
2019-05-13T23:17:38.939Z,76.90
2019-05-13T23:20:10.657Z,78.00
2019-05-13T23:22:42.307Z,81.10
2019-05-13T23:25:14.115Z,83.00
2019-05-13T23:27:45.761Z,82.90
2019-05-13T23:30:18.219Z,86.10
2019-05-13T23:32:51.788Z,86.50
2019-05-13T23:35:23.254Z,87.40
2019-05-13T23:37:54.954Z,88.20
2019-05-13T23:40:26.617Z,90.30
2019-05-13T23:42:59.240Z,90.90
2019-05-13T23:45:31.278Z,92.00
2019-05-13T23:48:02.972Z,92.30
2019-05-13T23:50:34.627Z,93.70
2019-05-13T23:53:06.293Z,94.20
2019-05-13T23:55:37.905Z,96.30
2019-05-13T23:58:12.021Z,98.50
